RZO183 LPPR-LPLA
Flight info
| Callsign | RZO183 |
|---|---|
| Flight time | N/A |
| Altitude | 36000 |
| Route | ASMOV DCT DIRMA DCT DETOX/M077F360 DCT 40N020W DCT BAVAS/M066F280 H121 LM |
| Aircraft | A21N/M-SDE2E3FGHIRWXY/LB1 |
Departure
| Time | 2026-05-04 09:01 |
|---|---|
| Airport | Francisco de Sá Carneiro Airport (LPPR) |
Arrival
| Time | N/A |
|---|---|
| Airport | Lajes Airport (LPLA) |
| Time | Latitude | Longitude | Altitude | Speed | Heading |
|---|---|---|---|---|---|
| 2026-05-04 08:35 | 41.23507 | -8.67285 | 241 ft | 0 kts | 114° |
| 2026-05-04 08:51 | 41.23508 | -8.67290 | 235 ft | 3 kts | 115° |
| 2026-05-04 08:51 | 41.23518 | -8.67317 | 241 ft | 3 kts | 121° |
| 2026-05-04 08:51 | 41.23532 | -8.67343 | 240 ft | 3 kts | 135° |
| 2026-05-04 08:52 | 41.23549 | -8.67359 | 239 ft | 3 kts | 178° |
| 2026-05-04 08:52 | 41.23560 | -8.67358 | 238 ft | 0 kts | 211° |
| 2026-05-04 08:55 | 41.23559 | -8.67358 | 235 ft | 1 kts | 211° |
| 2026-05-04 08:57 | 41.23307 | -8.67595 | 235 ft | 0 kts | 258° |
| 2026-05-04 09:01 | 41.34879 | -8.70774 | 4903 ft | 256 kts | 348° |
| 2026-05-04 09:01 | 41.36659 | -8.71242 | 5814 ft | 259 kts | 348° |
| 2026-05-04 09:01 | 41.37833 | -8.71550 | 6413 ft | 260 kts | 347° |
| 2026-05-04 09:01 | 41.39546 | -8.72323 | 7203 ft | 263 kts | 328° |
| 2026-05-04 09:02 | 41.40891 | -8.73970 | 7995 ft | 266 kts | 304° |
| 2026-05-04 09:02 | 41.41608 | -8.76248 | 8813 ft | 271 kts | 281° |
| 2026-05-04 09:02 | 41.41438 | -8.79589 | 9910 ft | 278 kts | 261° |
| 2026-05-04 09:02 | 41.41042 | -8.82157 | 10417 ft | 293 kts | 257° |
| 2026-05-04 09:03 | 41.40588 | -8.83942 | 10602 ft | 309 kts | 248° |
| 2026-05-04 09:03 | 41.39490 | -8.86461 | 11158 ft | 320 kts | 235° |
| 2026-05-04 09:03 | 41.37951 | -8.88649 | 11875 ft | 328 kts | 223° |
| 2026-05-04 09:03 | 41.36206 | -8.90621 | 12614 ft | 331 kts | 223° |
| 2026-05-04 09:04 | 41.34444 | -8.92614 | 13334 ft | 334 kts | 223° |
| 2026-05-04 09:04 | 41.32665 | -8.94628 | 14047 ft | 337 kts | 223° |
| 2026-05-04 09:04 | 41.30868 | -8.96658 | 14670 ft | 340 kts | 223° |
| 2026-05-04 09:04 | 41.29059 | -8.98701 | 15311 ft | 343 kts | 223° |
| 2026-05-04 09:05 | 41.27235 | -9.00760 | 15929 ft | 345 kts | 223° |
| 2026-05-04 09:05 | 41.25398 | -9.02834 | 16552 ft | 348 kts | 224° |
| 2026-05-04 09:05 | 41.23546 | -9.04920 | 17187 ft | 350 kts | 224° |
| 2026-05-04 09:05 | 41.21680 | -9.07020 | 17816 ft | 353 kts | 224° |
| 2026-05-04 09:06 | 41.19796 | -9.09132 | 18402 ft | 356 kts | 224° |
| 2026-05-04 09:07 | 41.06226 | -9.24343 | 22026 ft | 373 kts | 224° |
| 2026-05-04 09:08 | 41.04236 | -9.26569 | 22513 ft | 376 kts | 224° |
| 2026-05-04 09:08 | 41.02232 | -9.28808 | 22986 ft | 378 kts | 224° |
| 2026-05-04 09:08 | 41.00214 | -9.31059 | 23470 ft | 381 kts | 224° |
| 2026-05-04 09:08 | 40.98180 | -9.33325 | 23898 ft | 383 kts | 224° |
| 2026-05-04 09:09 | 40.96154 | -9.35626 | 24265 ft | 384 kts | 226° |
| 2026-05-04 09:09 | 40.94197 | -9.38043 | 24630 ft | 386 kts | 228° |
| 2026-05-04 09:09 | 40.92283 | -9.40550 | 25011 ft | 388 kts | 230° |
| 2026-05-04 09:09 | 40.90389 | -9.43097 | 25393 ft | 389 kts | 230° |
| 2026-05-04 09:10 | 40.88556 | -9.45728 | 25769 ft | 388 kts | 237° |
| 2026-05-04 09:10 | 40.87114 | -9.48715 | 26126 ft | 384 kts | 247° |
| 2026-05-04 09:10 | 40.86123 | -9.51976 | 26498 ft | 381 kts | 257° |
| 2026-05-04 09:10 | 40.85615 | -9.55400 | 26877 ft | 379 kts | 267° |
| 2026-05-04 09:11 | 40.85607 | -9.58874 | 27240 ft | 379 kts | 275° |
| 2026-05-04 09:11 | 40.85784 | -9.62351 | 27604 ft | 380 kts | 275° |
| 2026-05-04 09:11 | 40.85961 | -9.65847 | 27963 ft | 382 kts | 275° |
| 2026-05-04 09:11 | 40.86137 | -9.69356 | 28320 ft | 384 kts | 275° |
| 2026-05-04 09:12 | 40.86312 | -9.72884 | 28678 ft | 386 kts | 275° |
| 2026-05-04 09:12 | 40.86483 | -9.76427 | 29023 ft | 387 kts | 275° |
| 2026-05-04 09:14 | 40.87681 | -10.01646 | 31133 ft | 399 kts | 275° |
| 2026-05-04 09:14 | 40.87847 | -10.05307 | 31385 ft | 400 kts | 275° |
| 2026-05-04 09:14 | 40.88015 | -10.08986 | 31631 ft | 402 kts | 275° |
| 2026-05-04 09:14 | 40.88182 | -10.12680 | 31873 ft | 403 kts | 275° |
| 2026-05-04 09:15 | 40.88348 | -10.16375 | 32183 ft | 403 kts | 275° |
| 2026-05-04 09:15 | 40.88512 | -10.20061 | 32538 ft | 401 kts | 275° |
| 2026-05-04 09:15 | 40.88673 | -10.23737 | 32882 ft | 400 kts | 275° |
| 2026-05-04 09:15 | 40.88834 | -10.27400 | 33236 ft | 399 kts | 275° |
| 2026-05-04 09:17 | 40.90088 | -10.56544 | 35351 ft | 398 kts | 275° |
| 2026-05-04 09:18 | 40.90235 | -10.60146 | 35554 ft | 398 kts | 275° |
| 2026-05-04 09:18 | 40.90384 | -10.63800 | 35769 ft | 398 kts | 275° |
| 2026-05-04 09:18 | 40.90535 | -10.67449 | 35968 ft | 398 kts | 275° |
| 2026-05-04 09:18 | 40.90689 | -10.71152 | 36102 ft | 398 kts | 275° |
| 2026-05-04 09:19 | 40.90977 | -10.78363 | 36134 ft | 390 kts | 275° |
| 2026-05-04 09:19 | 40.91257 | -10.85499 | 36134 ft | 388 kts | 275° |
| 2026-05-04 09:20 | 40.91535 | -10.92582 | 36134 ft | 388 kts | 275° |
| 2026-05-04 09:20 | 40.91806 | -10.99751 | 36135 ft | 388 kts | 275° |
| 2026-05-04 09:21 | 40.92075 | -11.06874 | 36142 ft | 388 kts | 275° |
| 2026-05-04 09:21 | 40.92340 | -11.13949 | 36143 ft | 388 kts | 275° |
| 2026-05-04 09:22 | 40.92592 | -11.21077 | 36144 ft | 388 kts | 275° |
| 2026-05-04 09:22 | 40.92841 | -11.28206 | 36147 ft | 388 kts | 275° |
| 2026-05-04 09:23 | 40.93096 | -11.35339 | 36133 ft | 388 kts | 275° |
| 2026-05-04 09:23 | 40.93346 | -11.42524 | 36143 ft | 389 kts | 275° |
| 2026-05-04 09:25 | 40.94277 | -11.71033 | 36155 ft | 388 kts | 274° |
| 2026-05-04 09:26 | 40.94504 | -11.78165 | 36159 ft | 388 kts | 274° |
| 2026-05-04 09:26 | 40.94723 | -11.85294 | 36158 ft | 388 kts | 274° |
| 2026-05-04 09:27 | 40.94938 | -11.92425 | 36183 ft | 388 kts | 274° |
| 2026-05-04 09:27 | 40.95144 | -11.99562 | 36176 ft | 388 kts | 274° |
| 2026-05-04 09:28 | 40.95354 | -12.06747 | 36149 ft | 388 kts | 274° |
| 2026-05-04 09:28 | 40.95558 | -12.13880 | 36153 ft | 388 kts | 274° |
| 2026-05-04 09:29 | 40.95763 | -12.21011 | 36161 ft | 388 kts | 274° |
| 2026-05-04 09:29 | 40.95954 | -12.28143 | 36162 ft | 388 kts | 274° |
| 2026-05-04 09:30 | 40.96135 | -12.35272 | 36165 ft | 388 kts | 274° |
| 2026-05-04 09:30 | 40.96314 | -12.42447 | 36148 ft | 387 kts | 274° |
| 2026-05-04 09:31 | 40.96491 | -12.49560 | 36159 ft | 387 kts | 274° |
| 2026-05-04 09:31 | 40.96672 | -12.56664 | 36162 ft | 386 kts | 274° |
| 2026-05-04 09:32 | 40.96845 | -12.63813 | 36167 ft | 386 kts | 274° |
| 2026-05-04 09:34 | 40.97472 | -12.92244 | 36169 ft | 385 kts | 274° |
| 2026-05-04 09:34 | 40.97618 | -12.99322 | 36171 ft | 385 kts | 275° |
| 2026-05-04 09:35 | 40.97768 | -13.06443 | 36179 ft | 384 kts | 274° |
| 2026-05-04 09:35 | 40.97888 | -13.12317 | 36179 ft | 384 kts | 274° |
| 2026-05-04 09:37 | 40.98398 | -13.40596 | 36179 ft | 383 kts | 274° |
| 2026-05-04 09:38 | 40.98517 | -13.47648 | 36198 ft | 383 kts | 274° |
| 2026-05-04 09:38 | 40.98631 | -13.54693 | 36179 ft | 383 kts | 274° |
| 2026-05-04 09:39 | 40.98740 | -13.61737 | 36181 ft | 383 kts | 274° |
| 2026-05-04 09:39 | 40.98847 | -13.68821 | 36184 ft | 383 kts | 274° |
| 2026-05-04 09:40 | 40.98949 | -13.75861 | 36182 ft | 382 kts | 274° |
| 2026-05-04 09:40 | 40.99044 | -13.82896 | 36186 ft | 382 kts | 274° |
| 2026-05-04 09:42 | 40.99382 | -14.11079 | 36178 ft | 382 kts | 274° |
| 2026-05-04 09:43 | 40.99457 | -14.18109 | 36181 ft | 382 kts | 274° |
| 2026-05-04 09:43 | 40.99521 | -14.25142 | 36179 ft | 382 kts | 274° |
| 2026-05-04 09:44 | 40.99586 | -14.32171 | 36180 ft | 382 kts | 274° |
| 2026-05-04 09:46 | 40.99812 | -14.60339 | 36171 ft | 382 kts | 274° |
| 2026-05-04 09:46 | 40.99848 | -14.67368 | 36186 ft | 382 kts | 274° |
| 2026-05-04 09:47 | 40.99890 | -14.74392 | 36191 ft | 382 kts | 274° |
| 2026-05-04 09:49 | 40.99572 | -15.02526 | 36179 ft | 387 kts | 262° |
| 2026-05-04 09:51 | 40.95260 | -15.26830 | 36197 ft | 388 kts | 262° |
| 2026-05-04 09:51 | 40.94018 | -15.33768 | 36200 ft | 388 kts | 262° |
| 2026-05-04 09:52 | 40.92769 | -15.40701 | 36208 ft | 387 kts | 262° |
| 2026-05-04 09:52 | 40.91515 | -15.47677 | 36211 ft | 387 kts | 262° |
| 2026-05-04 09:53 | 40.90271 | -15.54607 | 36210 ft | 387 kts | 262° |
| 2026-05-04 09:53 | 40.89015 | -15.61531 | 36211 ft | 387 kts | 261° |
| 2026-05-04 09:54 | 40.87754 | -15.68449 | 36197 ft | 387 kts | 261° |
| 2026-05-04 09:54 | 40.86493 | -15.75366 | 36202 ft | 387 kts | 261° |
| 2026-05-04 09:55 | 40.85227 | -15.82281 | 36210 ft | 387 kts | 261° |
| 2026-05-04 09:55 | 40.83951 | -15.89235 | 36213 ft | 387 kts | 261° |
| 2026-05-04 09:56 | 40.82670 | -15.96138 | 36217 ft | 387 kts | 261° |
| 2026-05-04 09:56 | 40.81392 | -16.03037 | 36194 ft | 387 kts | 261° |
| 2026-05-04 09:57 | 40.80112 | -16.09934 | 36205 ft | 387 kts | 261° |
| 2026-05-04 09:57 | 40.78826 | -16.16826 | 36210 ft | 387 kts | 261° |
| 2026-05-04 09:58 | 40.77528 | -16.23760 | 36221 ft | 387 kts | 261° |
| 2026-05-04 09:58 | 40.76234 | -16.30643 | 36223 ft | 387 kts | 261° |
| 2026-05-04 10:00 | 40.71017 | -16.58185 | 36218 ft | 386 kts | 261° |
| 2026-05-04 10:04 | 40.61945 | -17.05122 | 36210 ft | 386 kts | 261° |
| 2026-05-04 10:04 | 40.60603 | -17.11972 | 36218 ft | 387 kts | 260° |
| 2026-05-04 10:05 | 40.59258 | -17.18820 | 36226 ft | 387 kts | 260° |
| 2026-05-04 10:05 | 40.57908 | -17.25670 | 36232 ft | 387 kts | 260° |
| 2026-05-04 10:06 | 40.56551 | -17.32518 | 36231 ft | 387 kts | 260° |
| 2026-05-04 10:06 | 40.55192 | -17.39364 | 36237 ft | 387 kts | 260° |
| 2026-05-04 10:08 | 40.50399 | -17.63333 | 36235 ft | 388 kts | 260° |
| 2026-05-04 10:08 | 40.49018 | -17.70185 | 36239 ft | 388 kts | 259° |
| 2026-05-04 10:09 | 40.47630 | -17.77029 | 36225 ft | 388 kts | 259° |
| 2026-05-04 10:09 | 40.46244 | -17.83881 | 36232 ft | 388 kts | 259° |
| 2026-05-04 10:10 | 40.44845 | -17.90776 | 36239 ft | 388 kts | 259° |
| 2026-05-04 10:10 | 40.43444 | -17.97624 | 36241 ft | 388 kts | 259° |
| 2026-05-04 10:11 | 40.42032 | -18.04469 | 36246 ft | 389 kts | 259° |
| 2026-05-04 10:11 | 40.40631 | -18.11317 | 36229 ft | 389 kts | 259° |
| 2026-05-04 10:12 | 40.39226 | -18.18164 | 36231 ft | 389 kts | 259° |
| 2026-05-04 10:12 | 40.37803 | -18.25015 | 36236 ft | 389 kts | 258° |